createdAt,value
2018-01-25T00:01:44.134Z,99.90
2018-01-25T00:04:10.520Z,99.90
2018-01-25T00:06:36.858Z,99.90
2018-01-25T00:09:03.203Z,99.90
2018-01-25T00:11:29.505Z,99.90
2018-01-25T00:13:56.817Z,99.90
2018-01-25T00:16:23.883Z,99.90
2018-01-25T00:18:50.183Z,99.90
2018-01-25T00:21:16.484Z,99.90
2018-01-25T00:23:42.780Z,99.90
2018-01-25T00:26:09.082Z,99.90
2018-01-25T00:28:35.374Z,99.90
2018-01-25T00:31:01.698Z,99.90
2018-01-25T00:33:28.003Z,99.90
2018-01-25T00:35:54.305Z,99.90
2018-01-25T00:38:20.627Z,99.90
2018-01-25T00:40:46.980Z,99.90
2018-01-25T00:43:14.011Z,99.90
2018-01-25T00:45:40.286Z,99.90
2018-01-25T00:48:06.596Z,99.90
2018-01-25T00:50:32.904Z,99.90
2018-01-25T00:52:59.252Z,99.90
2018-01-25T00:55:26.266Z,99.90
2018-01-25T00:57:52.575Z,99.90
2018-01-25T01:00:18.879Z,99.90
2018-01-25T01:02:45.195Z,99.90
2018-01-25T01:05:11.694Z,99.90
2018-01-25T01:07:38.018Z,99.90
2018-01-25T01:10:04.309Z,99.90
2018-01-25T01:12:30.630Z,99.90
2018-01-25T01:14:58.658Z,99.90
2018-01-25T01:17:24.957Z,99.90
2018-01-25T01:19:51.318Z,99.90
2018-01-25T01:22:19.095Z,99.90
2018-01-25T01:24:46.131Z,99.90
2018-01-25T01:27:12.457Z,99.90
2018-01-25T01:29:41.303Z,99.90
2018-01-25T01:32:07.622Z,99.90
2018-01-25T01:34:33.938Z,99.90
2018-01-25T01:37:00.975Z,99.90
2018-01-25T01:39:28.030Z,99.90
2018-01-25T01:41:55.147Z,99.90
2018-01-25T01:44:21.421Z,99.90
2018-01-25T01:46:47.710Z,99.90
2018-01-25T01:49:13.997Z,99.90
2018-01-25T01:51:40.350Z,99.90
2018-01-25T01:54:06.649Z,99.90
2018-01-25T01:56:32.958Z,99.90
2018-01-25T01:58:59.990Z,99.90
2018-01-25T02:01:26.291Z,99.90
2018-01-25T02:03:52.595Z,99.90
2018-01-25T02:06:18.885Z,99.90
2018-01-25T02:08:46.339Z,99.90
2018-01-25T02:11:12.636Z,99.90
2018-01-25T02:13:39.122Z,99.90
2018-01-25T02:16:07.158Z,99.90
2018-01-25T02:18:33.466Z,99.90
2018-01-25T02:20:59.758Z,99.90
2018-01-25T02:23:26.051Z,99.90
2018-01-25T02:25:52.359Z,99.90
2018-01-25T02:28:18.660Z,99.90
2018-01-25T02:30:44.950Z,99.90
2018-01-25T02:33:11.470Z,99.90
2018-01-25T02:35:37.775Z,99.90
2018-01-25T02:38:04.054Z,99.90
2018-01-25T02:40:32.172Z,99.90
2018-01-25T02:42:58.447Z,99.90
2018-01-25T02:45:24.733Z,99.90
2018-01-25T02:47:51.039Z,99.90
2018-01-25T02:50:17.641Z,99.90
2018-01-25T02:52:45.004Z,99.90
2018-01-25T02:55:12.835Z,99.90
2018-01-25T02:57:39.154Z,99.90
2018-01-25T03:00:05.483Z,99.90
2018-01-25T03:02:31.820Z,99.90
2018-01-25T03:04:58.219Z,99.90
2018-01-25T03:07:24.540Z,99.90
2018-01-25T03:09:51.607Z,99.90
2018-01-25T03:12:17.964Z,99.90
2018-01-25T03:14:44.290Z,99.90
2018-01-25T03:17:10.783Z,99.90
2018-01-25T03:19:38.892Z,99.90
2018-01-25T03:22:05.211Z,99.90
2018-01-25T03:24:31.519Z,99.90
2018-01-25T03:26:58.610Z,99.90
2018-01-25T03:29:24.915Z,99.90
2018-01-25T03:31:51.261Z,99.90
2018-01-25T03:34:17.614Z,99.90
2018-01-25T03:36:43.966Z,99.90
2018-01-25T03:39:12.066Z,99.90
2018-01-25T03:41:39.153Z,99.90
2018-01-25T03:44:05.466Z,99.90
2018-01-25T03:46:31.829Z,99.90
2018-01-25T03:48:58.335Z,99.90
2018-01-25T03:51:24.687Z,99.90
2018-01-25T03:53:51.067Z,99.90
2018-01-25T03:56:19.119Z,99.90
2018-01-25T03:58:45.454Z,99.90
2018-01-25T04:01:11.762Z,99.90
2018-01-25T04:03:40.300Z,99.90
2018-01-25T04:06:07.450Z,99.90
2018-01-25T04:08:34.534Z,99.90
2018-01-25T04:11:00.934Z,99.90
2018-01-25T04:13:27.311Z,99.90
2018-01-25T04:15:53.639Z,99.90
2018-01-25T04:18:20.012Z,99.90
2018-01-25T04:20:47.101Z,99.90
2018-01-25T04:23:13.447Z,99.90
2018-01-25T04:25:39.771Z,99.90
2018-01-25T04:28:06.122Z,99.90
2018-01-25T04:30:33.926Z,99.90
2018-01-25T04:33:00.242Z,99.90
2018-01-25T04:35:27.326Z,99.90
2018-01-25T04:37:53.650Z,99.90
2018-01-25T04:40:20.019Z,99.90
2018-01-25T04:42:46.363Z,99.90
2018-01-25T04:45:13.426Z,99.90
2018-01-25T04:47:40.533Z,99.90
2018-01-25T04:50:14.867Z,99.90
2018-01-25T04:52:41.222Z,99.90
2018-01-25T04:55:08.303Z,99.90
2018-01-25T04:57:34.651Z,99.90
2018-01-25T05:00:00.972Z,99.90
2018-01-25T05:02:27.297Z,99.90
2018-01-25T05:04:53.652Z,99.90
2018-01-25T05:07:19.986Z,99.90
2018-01-25T05:09:46.323Z,99.90
2018-01-25T05:12:12.664Z,99.90
2018-01-25T05:14:39.022Z,99.90
2018-01-25T05:17:07.059Z,99.90
2018-01-25T05:19:34.436Z,99.90
2018-01-25T05:22:00.775Z,99.90
2018-01-25T05:24:28.850Z,99.90
2018-01-25T05:26:55.911Z,99.90
2018-01-25T05:29:22.964Z,99.90
2018-01-25T05:31:50.102Z,99.90
2018-01-25T05:34:17.198Z,99.90
2018-01-25T05:36:43.528Z,99.90
2018-01-25T05:39:09.867Z,99.90
2018-01-25T05:41:36.186Z,99.90
2018-01-25T05:44:02.518Z,99.90
2018-01-25T05:46:28.810Z,99.90
2018-01-25T05:48:55.846Z,99.90
2018-01-25T05:51:22.916Z,99.90
2018-01-25T05:53:49.234Z,99.90
2018-01-25T05:56:16.289Z,99.90
2018-01-25T05:58:43.398Z,99.90
2018-01-25T06:01:09.690Z,99.90
2018-01-25T06:03:35.987Z,99.90
2018-01-25T06:06:03.007Z,99.90
2018-01-25T06:08:30.090Z,99.90
2018-01-25T06:10:57.110Z,99.90
2018-01-25T06:13:23.384Z,99.90
2018-01-25T06:15:50.724Z,99.90
2018-01-25T06:18:17.745Z,99.90
2018-01-25T06:20:44.053Z,99.90
2018-01-25T06:23:10.329Z,99.90
2018-01-25T06:25:37.377Z,99.90
2018-01-25T06:28:03.668Z,99.90
2018-01-25T06:30:29.950Z,99.90
2018-01-25T06:32:56.234Z,99.90
2018-01-25T06:35:22.531Z,99.90
2018-01-25T06:37:48.830Z,99.90
2018-01-25T06:40:15.216Z,99.90
2018-01-25T06:42:41.502Z,99.90
2018-01-25T06:45:07.806Z,99.90
2018-01-25T06:47:34.826Z,99.90
2018-01-25T06:50:01.127Z,99.90
2018-01-25T06:52:27.445Z,99.90
2018-01-25T06:54:53.738Z,99.90
2018-01-25T06:57:20.807Z,99.90
2018-01-25T06:59:47.846Z,99.90
2018-01-25T07:02:15.924Z,99.90
2018-01-25T07:04:42.965Z,99.90
2018-01-25T07:07:10.034Z,99.90
2018-01-25T07:09:36.338Z,99.90
2018-01-25T07:12:02.638Z,99.90
2018-01-25T07:14:28.930Z,99.90
2018-01-25T07:16:55.232Z,99.90
2018-01-25T07:19:22.278Z,99.90
2018-01-25T07:21:49.306Z,99.90
2018-01-25T07:24:15.575Z,99.90
2018-01-25T07:26:41.863Z,99.90
2018-01-25T07:29:08.166Z,99.90
2018-01-25T07:31:34.442Z,99.90
2018-01-25T07:34:00.775Z,99.90
2018-01-25T07:36:27.818Z,99.90
2018-01-25T07:38:54.094Z,99.90
2018-01-25T07:41:20.366Z,99.90
2018-01-25T07:43:46.663Z,99.90
2018-01-25T07:46:12.982Z,99.90
2018-01-25T07:48:39.296Z,99.90
2018-01-25T07:51:05.590Z,99.90
2018-01-25T07:53:31.879Z,99.90
2018-01-25T07:55:58.159Z,99.90
2018-01-25T07:58:24.526Z,99.90
2018-01-25T08:00:50.818Z,99.90
2018-01-25T08:03:17.131Z,99.90
2018-01-25T08:05:43.420Z,99.90
2018-01-25T08:08:09.718Z,99.90
2018-01-25T08:10:36.028Z,99.90
2018-01-25T08:13:08.468Z,99.90
2018-01-25T08:15:34.827Z,99.90
2018-01-25T08:18:01.318Z,99.90
2018-01-25T08:20:28.330Z,99.90
2018-01-25T08:22:54.623Z,99.90
2018-01-25T08:25:20.960Z,99.90
2018-01-25T08:27:47.284Z,99.90
2018-01-25T08:30:13.575Z,99.90
2018-01-25T08:32:39.900Z,99.90
2018-01-25T08:35:06.990Z,99.90
2018-01-25T08:37:33.271Z,99.90
2018-01-25T08:39:59.594Z,99.90
2018-01-25T08:42:25.876Z,99.90
2018-01-25T08:44:52.151Z,99.90
2018-01-25T08:47:18.423Z,99.90
2018-01-25T08:49:44.719Z,99.90
2018-01-25T08:52:11.815Z,99.90
2018-01-25T08:54:38.106Z,99.90
2018-01-25T08:57:05.119Z,99.90
2018-01-25T08:59:31.411Z,99.90
2018-01-25T09:01:57.710Z,99.90
2018-01-25T09:04:24.763Z,99.90
2018-01-25T09:06:51.803Z,99.90
2018-01-25T09:09:18.872Z,99.90
2018-01-25T09:11:45.193Z,99.90
2018-01-25T09:14:12.215Z,99.90
2018-01-25T09:16:40.283Z,99.90
2018-01-25T09:19:06.570Z,99.90
2018-01-25T09:21:32.862Z,99.90
2018-01-25T09:23:59.146Z,99.90
2018-01-25T09:26:25.455Z,99.90
2018-01-25T09:28:51.756Z,99.90
2018-01-25T09:31:18.794Z,99.90
2018-01-25T09:33:45.833Z,99.90
2018-01-25T09:36:12.142Z,99.90
2018-01-25T09:38:38.430Z,99.40
2018-01-25T09:41:04.740Z,98.80
2018-01-25T09:43:31.788Z,97.70
2018-01-25T09:45:59.902Z,96.10
2018-01-25T09:48:26.183Z,96.00
2018-01-25T09:50:52.462Z,95.30
2018-01-25T09:53:18.770Z,95.70
2018-01-25T09:55:45.058Z,94.60
2018-01-25T09:58:11.379Z,91.90
2018-01-25T10:00:37.667Z,92.20
2018-01-25T10:03:03.956Z,91.30
2018-01-25T10:05:32.827Z,90.10
2018-01-25T10:07:59.143Z,90.10
2018-01-25T10:10:25.468Z,90.50
2018-01-25T10:12:51.791Z,90.60
2018-01-25T10:15:18.130Z,88.50
2018-01-25T10:17:44.434Z,87.40
2018-01-25T10:20:10.792Z,87.40
2018-01-25T10:22:37.105Z,84.40
2018-01-25T10:25:03.393Z,85.70
2018-01-25T10:27:30.952Z,85.50
2018-01-25T10:29:58.171Z,83.00
2018-01-25T10:32:24.621Z,83.00
2018-01-25T10:34:51.929Z,82.20
2018-01-25T10:37:18.271Z,80.80
2018-01-25T10:39:44.555Z,80.10
2018-01-25T10:42:10.865Z,79.80
2018-01-25T10:44:37.159Z,79.40
2018-01-25T10:47:03.451Z,77.70
2018-01-25T10:49:29.729Z,77.00
2018-01-25T10:51:56.034Z,76.80
2018-01-25T10:54:23.050Z,74.60
2018-01-25T10:56:49.343Z,75.30
2018-01-25T10:59:16.255Z,71.80
2018-01-25T11:01:49.367Z,70.70
2018-01-25T11:04:15.678Z,70.70
2018-01-25T11:06:41.958Z,69.80
2018-01-25T11:09:08.230Z,68.10
2018-01-25T11:11:35.284Z,66.30
2018-01-25T11:14:01.578Z,66.20
2018-01-25T11:16:27.899Z,64.40
2018-01-25T11:18:54.182Z,64.90
2018-01-25T11:21:20.466Z,65.00
2018-01-25T11:23:46.759Z,61.30
2018-01-25T11:26:13.038Z,60.50
2018-01-25T11:28:39.364Z,59.70
2018-01-25T11:31:06.411Z,57.70
2018-01-25T11:33:32.746Z,57.60
2018-01-25T11:36:00.051Z,56.10
2018-01-25T11:38:26.326Z,55.50
2018-01-25T11:40:52.631Z,53.50
2018-01-25T11:43:18.922Z,53.60
2018-01-25T11:45:45.231Z,54.40
2018-01-25T11:48:12.286Z,53.20
2018-01-25T11:50:39.298Z,54.60
2018-01-25T11:53:05.650Z,54.60
2018-01-25T11:55:31.903Z,53.00
2018-01-25T11:57:58.215Z,52.00
2018-01-25T12:00:25.226Z,52.40
2018-01-25T12:02:51.514Z,52.40
2018-01-25T12:05:17.818Z,51.70
2018-01-25T12:07:44.843Z,50.50
2018-01-25T12:10:11.145Z,50.50
2018-01-25T12:12:37.419Z,51.10
2018-01-25T12:15:04.678Z,51.70
2018-01-25T12:17:31.718Z,49.50
2018-01-25T12:19:58.756Z,49.80
2018-01-25T12:22:25.054Z,49.10
2018-01-25T12:24:51.348Z,49.70
2018-01-25T12:27:17.642Z,48.10
2018-01-25T12:29:43.946Z,49.60
2018-01-25T12:32:10.231Z,50.90
2018-01-25T12:34:37.278Z,48.70
2018-01-25T12:37:04.310Z,47.80
2018-01-25T12:39:31.358Z,49.10
2018-01-25T12:41:58.455Z,53.80
2018-01-25T12:44:24.731Z,53.20
2018-01-25T12:46:51.046Z,51.80
2018-01-25T12:49:17.359Z,54.50
2018-01-25T12:51:44.655Z,54.20
2018-01-25T12:54:11.714Z,55.60
2018-01-25T12:56:38.730Z,55.40
2018-01-25T12:59:05.011Z,55.40
2018-01-25T13:01:31.304Z,53.80
2018-01-25T13:03:57.592Z,55.00
2018-01-25T13:06:23.891Z,54.60
2018-01-25T13:08:50.190Z,54.30
2018-01-25T13:11:17.494Z,53.60
2018-01-25T13:13:43.787Z,52.90
2018-01-25T13:16:10.091Z,54.50
2018-01-25T13:18:36.395Z,55.00
2018-01-25T13:21:03.699Z,55.70
2018-01-25T13:23:30.746Z,55.30
2018-01-25T13:25:57.792Z,55.40
2018-01-25T13:28:24.834Z,55.10
2018-01-25T13:30:51.882Z,55.70
2018-01-25T13:33:24.862Z,56.20
2018-01-25T13:35:51.142Z,56.20
2018-01-25T13:38:17.416Z,57.70
2018-01-25T13:40:44.274Z,58.10
2018-01-25T13:43:11.417Z,57.20
2018-01-25T13:45:38.440Z,57.20
2018-01-25T13:48:04.760Z,57.20
2018-01-25T13:50:31.050Z,56.80
2018-01-25T13:53:00.370Z,56.20
2018-01-25T13:55:26.663Z,56.30
2018-01-25T13:57:53.862Z,57.00
2018-01-25T14:00:20.238Z,56.90
2018-01-25T14:02:46.514Z,56.30
2018-01-25T14:05:12.803Z,56.10
2018-01-25T14:07:40.874Z,56.00
2018-01-25T14:10:07.183Z,55.90
2018-01-25T14:12:33.471Z,56.20
2018-01-25T14:14:59.934Z,56.30
2018-01-25T14:17:26.962Z,57.40
2018-01-25T14:19:53.271Z,57.40
2018-01-25T14:22:20.618Z,59.10
2018-01-25T14:24:46.898Z,57.30
2018-01-25T14:27:13.235Z,58.70
2018-01-25T14:29:39.507Z,57.90
2018-01-25T14:32:06.546Z,58.10
2018-01-25T14:34:33.567Z,57.90
2018-01-25T14:36:59.870Z,57.90
2018-01-25T14:39:26.172Z,59.30
2018-01-25T14:41:52.442Z,59.20
2018-01-25T14:44:18.748Z,58.90
2018-01-25T14:46:46.067Z,58.10
2018-01-25T14:49:13.094Z,62.20
2018-01-25T14:51:39.378Z,62.20
2018-01-25T14:54:05.654Z,64.10
2018-01-25T14:56:32.260Z,64.60
2018-01-25T14:58:58.535Z,65.70
2018-01-25T15:01:25.575Z,71.50
2018-01-25T15:03:52.611Z,71.10
2018-01-25T15:06:18.887Z,71.10
2018-01-25T15:08:45.182Z,71.20
2018-01-25T15:11:12.219Z,73.60
2018-01-25T15:13:38.497Z,73.70
2018-01-25T15:16:04.775Z,75.00
2018-01-25T15:18:31.060Z,76.40
2018-01-25T15:20:57.383Z,78.80
2018-01-25T15:23:23.686Z,75.80
2018-01-25T15:25:56.931Z,75.60
2018-01-25T15:28:23.401Z,75.60
2018-01-25T15:30:49.705Z,74.20
2018-01-25T15:33:16.631Z,75.00
2018-01-25T15:35:42.930Z,76.00
2018-01-25T15:38:09.216Z,79.30
2018-01-25T15:40:35.522Z,78.90
2018-01-25T15:43:01.837Z,73.90
2018-01-25T15:45:28.199Z,73.00
2018-01-25T15:47:54.491Z,72.40
2018-01-25T15:50:20.790Z,72.50
2018-01-25T15:52:47.854Z,72.80
2018-01-25T15:55:14.162Z,72.80
2018-01-25T15:57:41.199Z,72.70
2018-01-25T16:00:07.535Z,72.70
2018-01-25T16:02:33.854Z,72.60
2018-01-25T16:05:00.170Z,74.50
2018-01-25T16:07:26.454Z,83.10
2018-01-25T16:09:52.764Z,83.40
2018-01-25T16:12:19.783Z,84.00
2018-01-25T16:14:46.082Z,83.40
2018-01-25T16:17:12.397Z,87.90
2018-01-25T16:19:38.689Z,90.10
2018-01-25T16:22:08.362Z,90.90
2018-01-25T16:24:34.626Z,92.60
2018-01-25T16:27:00.922Z,92.70
2018-01-25T16:29:27.266Z,93.60
2018-01-25T16:31:53.574Z,93.30
2018-01-25T16:34:20.289Z,94.50
2018-01-25T16:36:46.591Z,94.40
2018-01-25T16:39:12.898Z,93.50
2018-01-25T16:41:39.179Z,94.70
2018-01-25T16:44:05.462Z,94.60
2018-01-25T16:46:31.762Z,95.40
2018-01-25T16:48:58.031Z,96.10
2018-01-25T16:51:24.347Z,95.90
2018-01-25T16:53:51.663Z,96.10
2018-01-25T16:56:17.942Z,97.10
2018-01-25T16:58:44.226Z,96.70
2018-01-25T17:01:10.506Z,96.40
2018-01-25T17:03:36.812Z,95.90
2018-01-25T17:06:03.112Z,96.70
2018-01-25T17:08:29.440Z,96.60
2018-01-25T17:10:55.727Z,95.50
2018-01-25T17:13:22.033Z,94.70
2018-01-25T17:15:48.320Z,94.90
2018-01-25T17:18:16.400Z,98.10
2018-01-25T17:20:42.706Z,98.10
2018-01-25T17:23:09.007Z,96.00
2018-01-25T17:25:35.315Z,95.40
2018-01-25T17:28:01.595Z,95.90
2018-01-25T17:30:28.614Z,99.70
2018-01-25T17:32:54.924Z,99.90
2018-01-25T17:35:21.207Z,97.30
2018-01-25T17:37:48.221Z,96.30
2018-01-25T17:40:14.534Z,96.30
2018-01-25T17:42:40.831Z,98.50
2018-01-25T17:45:07.883Z,99.90
2018-01-25T17:47:34.939Z,99.90
2018-01-25T17:50:01.219Z,99.90
2018-01-25T17:52:27.515Z,99.90
2018-01-25T17:54:53.812Z,98.70
2018-01-25T17:57:20.858Z,98.60
2018-01-25T17:59:47.887Z,99.90
2018-01-25T18:02:14.186Z,99.90
2018-01-25T18:04:40.462Z,99.90
2018-01-25T18:07:07.495Z,99.90
2018-01-25T18:09:33.826Z,99.90
2018-01-25T18:12:00.099Z,99.90
2018-01-25T18:14:26.366Z,99.90
2018-01-25T18:16:52.679Z,99.90
2018-01-25T18:19:18.959Z,99.90
2018-01-25T18:21:46.020Z,99.90
2018-01-25T18:24:13.051Z,99.90
2018-01-25T18:26:40.115Z,99.90
2018-01-25T18:29:06.406Z,99.90
2018-01-25T18:31:32.714Z,99.90
2018-01-25T18:33:59.018Z,99.90
2018-01-25T18:36:25.325Z,99.90
2018-01-25T18:38:52.352Z,99.90
2018-01-25T18:41:18.639Z,99.90
2018-01-25T18:43:44.958Z,99.90
2018-01-25T18:46:11.299Z,99.90
2018-01-25T18:48:37.610Z,99.90
2018-01-25T18:51:04.638Z,99.90
2018-01-25T18:53:30.909Z,99.90
2018-01-25T18:55:57.194Z,99.90
2018-01-25T18:58:23.462Z,99.90
2018-01-25T19:00:49.766Z,99.90
2018-01-25T19:03:16.786Z,99.90
2018-01-25T19:05:43.098Z,99.90
2018-01-25T19:08:09.378Z,99.90
2018-01-25T19:10:36.447Z,99.90
2018-01-25T19:13:02.727Z,99.90
2018-01-25T19:15:29.062Z,99.90
2018-01-25T19:17:55.345Z,99.90
2018-01-25T19:20:21.623Z,99.90
2018-01-25T19:22:49.434Z,99.90
2018-01-25T19:25:16.454Z,99.90
2018-01-25T19:27:43.484Z,99.90
2018-01-25T19:30:09.770Z,99.90
2018-01-25T19:32:36.075Z,99.90
2018-01-25T19:35:03.115Z,99.90
2018-01-25T19:37:30.219Z,99.90
2018-01-25T19:39:57.087Z,99.90
2018-01-25T19:42:23.350Z,99.90
2018-01-25T19:44:49.638Z,99.90
2018-01-25T19:47:15.918Z,99.90
2018-01-25T19:49:42.195Z,99.90
2018-01-25T19:52:08.503Z,99.90
2018-01-25T19:54:34.795Z,99.90
2018-01-25T19:57:01.899Z,99.90
2018-01-25T19:59:28.190Z,99.90
2018-01-25T20:01:54.459Z,99.90
2018-01-25T20:04:20.747Z,99.90
2018-01-25T20:06:47.030Z,99.90
2018-01-25T20:09:13.358Z,99.90
2018-01-25T20:11:39.674Z,99.90
2018-01-25T20:14:06.015Z,99.90
2018-01-25T20:16:32.342Z,99.90
2018-01-25T20:18:58.644Z,99.90
2018-01-25T20:21:24.954Z,99.90
2018-01-25T20:23:51.258Z,99.90
2018-01-25T20:26:17.562Z,99.90
2018-01-25T20:28:43.842Z,99.90
2018-01-25T20:31:10.913Z,99.90
2018-01-25T20:33:37.181Z,99.90
2018-01-25T20:36:03.501Z,99.90
2018-01-25T20:38:29.774Z,99.90
2018-01-25T20:40:57.115Z,99.90
2018-01-25T20:43:24.155Z,99.90
2018-01-25T20:45:50.454Z,99.90
2018-01-25T20:48:16.793Z,99.90
2018-01-25T20:50:43.153Z,99.90
2018-01-25T20:53:09.441Z,99.90
2018-01-25T20:55:35.974Z,99.90
2018-01-25T20:58:02.303Z,99.90
2018-01-25T21:00:28.632Z,99.90
2018-01-25T21:02:54.908Z,99.90
2018-01-25T21:05:21.218Z,99.90
2018-01-25T21:07:47.519Z,99.90
2018-01-25T21:10:13.800Z,99.90
2018-01-25T21:12:40.123Z,99.90
2018-01-25T21:15:06.406Z,99.90
2018-01-25T21:17:32.702Z,99.90
2018-01-25T21:19:59.108Z,99.90
2018-01-25T21:22:25.386Z,99.90
2018-01-25T21:24:51.699Z,99.90
2018-01-25T21:27:19.013Z,99.90
2018-01-25T21:29:45.362Z,99.90
2018-01-25T21:32:11.710Z,99.90
2018-01-25T21:34:37.998Z,99.90
2018-01-25T21:37:05.946Z,99.90
2018-01-25T21:39:33.295Z,99.90
2018-01-25T21:41:59.593Z,99.90
2018-01-25T21:44:25.878Z,99.90
2018-01-25T21:46:52.914Z,99.90
2018-01-25T21:49:19.278Z,99.90
2018-01-25T21:51:46.309Z,99.90
2018-01-25T21:54:12.663Z,99.90
2018-01-25T21:56:39.747Z,99.90
2018-01-25T21:59:06.019Z,99.90
2018-01-25T22:01:34.088Z,99.90
2018-01-25T22:04:00.375Z,99.90
2018-01-25T22:06:26.642Z,99.90
2018-01-25T22:08:52.922Z,99.90
2018-01-25T22:11:19.232Z,99.90
2018-01-25T22:13:46.252Z,99.90
2018-01-25T22:16:12.536Z,99.90
2018-01-25T22:18:38.812Z,99.90
2018-01-25T22:21:05.106Z,99.90
2018-01-25T22:23:31.382Z,99.90
2018-01-25T22:25:57.690Z,99.90
2018-01-25T22:28:26.435Z,99.90
2018-01-25T22:30:53.445Z,99.90
2018-01-25T22:33:20.479Z,99.90
2018-01-25T22:35:46.766Z,99.90
2018-01-25T22:38:13.802Z,99.90
2018-01-25T22:40:40.817Z,99.90
2018-01-25T22:43:07.840Z,99.90
2018-01-25T22:45:34.729Z,99.90
2018-01-25T22:48:01.794Z,99.90
2018-01-25T22:50:28.117Z,99.90
2018-01-25T22:52:55.130Z,99.90
2018-01-25T22:55:21.403Z,99.90
2018-01-25T22:57:47.691Z,99.90
2018-01-25T23:00:26.233Z,99.90
2018-01-25T23:02:53.254Z,99.90
2018-01-25T23:05:19.541Z,99.90
2018-01-25T23:07:45.823Z,99.90
2018-01-25T23:10:13.582Z,99.90
2018-01-25T23:12:39.883Z,99.90
2018-01-25T23:15:06.171Z,99.90
2018-01-25T23:17:32.468Z,99.90
2018-01-25T23:19:59.526Z,99.90
2018-01-25T23:22:26.328Z,99.90
2018-01-25T23:24:52.626Z,99.90
2018-01-25T23:27:18.937Z,99.90
2018-01-25T23:29:46.006Z,99.90
2018-01-25T23:32:13.333Z,99.90
2018-01-25T23:34:39.605Z,99.90
2018-01-25T23:37:05.894Z,99.90
2018-01-25T23:39:32.946Z,99.90
2018-01-25T23:41:59.999Z,99.90
2018-01-25T23:44:27.042Z,99.90
2018-01-25T23:46:54.132Z,99.90
2018-01-25T23:49:20.417Z,99.90
2018-01-25T23:51:46.714Z,99.90
2018-01-25T23:54:13.033Z,99.90
2018-01-25T23:56:39.326Z,99.90
2018-01-25T23:59:06.374Z,99.90
